createdAt,value
2019-03-22T00:01:34.322Z,8.79
2019-03-22T00:06:38.137Z,8.79
2019-03-22T00:11:41.554Z,8.82
2019-03-22T00:16:44.755Z,8.72
2019-03-22T00:21:48.165Z,8.75
2019-03-22T00:26:52.903Z,8.68
2019-03-22T00:31:56.020Z,8.76
2019-03-22T00:36:59.855Z,8.57
2019-03-22T00:42:02.554Z,8.66
2019-03-22T00:47:06.053Z,8.64
2019-03-22T00:52:10.172Z,8.75
2019-03-22T00:57:14.032Z,8.71
2019-03-22T01:02:17.145Z,8.72
2019-03-22T01:07:20.935Z,8.73
2019-03-22T01:12:25.054Z,8.69
2019-03-22T01:17:28.570Z,8.64
2019-03-22T01:22:31.981Z,8.75
2019-03-22T01:27:40.688Z,8.77
2019-03-22T01:32:41.922Z,8.66
2019-03-22T01:37:45.403Z,8.54
2019-03-22T01:42:49.245Z,8.41
2019-03-22T01:47:52.952Z,8.49
2019-03-22T01:52:56.812Z,8.57
2019-03-22T01:58:00.646Z,8.61
2019-03-22T02:03:04.467Z,8.58
2019-03-22T02:08:07.951Z,8.66
2019-03-22T02:13:11.474Z,8.54
2019-03-22T02:18:15.311Z,8.47
2019-03-22T02:23:18.734Z,8.52
2019-03-22T02:28:22.947Z,8.59
2019-03-22T02:33:27.089Z,8.50
2019-03-22T02:38:30.825Z,8.60
2019-03-22T02:43:34.638Z,8.60
2019-03-22T02:48:37.748Z,8.32
2019-03-22T02:53:41.580Z,8.50
2019-03-22T02:58:45.059Z,8.50
2019-03-22T03:03:48.906Z,8.55
2019-03-22T03:08:52.743Z,8.65
2019-03-22T03:13:57.544Z,8.38
2019-03-22T03:19:01.419Z,8.49
2019-03-22T03:24:05.202Z,8.48
2019-03-22T03:29:08.843Z,8.58
2019-03-22T03:34:12.305Z,8.53
2019-03-22T03:39:15.762Z,8.54
2019-03-22T03:44:19.314Z,8.54
2019-03-22T03:49:22.833Z,8.53
2019-03-22T03:54:25.909Z,8.47
2019-03-22T03:59:30.173Z,8.35
2019-03-22T04:04:33.927Z,8.50
2019-03-22T04:09:38.138Z,8.53
2019-03-22T04:14:41.918Z,8.57
2019-03-22T04:19:47.041Z,8.55
2019-03-22T04:24:50.482Z,8.61
2019-03-22T04:29:53.833Z,8.55
2019-03-22T04:34:57.370Z,8.53
2019-03-22T04:40:00.542Z,8.51
2019-03-22T04:45:05.702Z,8.61
2019-03-22T04:50:08.988Z,8.50
2019-03-22T04:55:14.028Z,8.53
2019-03-22T05:00:19.012Z,8.52
2019-03-22T05:05:23.020Z,8.65
2019-03-22T05:10:27.238Z,8.63
2019-03-22T05:15:32.883Z,8.65
2019-03-22T05:20:38.534Z,8.68
2019-03-22T05:25:44.458Z,8.67
2019-03-22T05:31:39.845Z,8.62
2019-03-22T05:36:43.701Z,8.44
2019-03-22T05:41:46.466Z,8.56
2019-03-22T05:46:49.835Z,8.50
2019-03-22T05:51:53.702Z,8.55
2019-03-22T05:56:57.589Z,8.29
2019-03-22T06:02:01.136Z,8.57
2019-03-22T06:07:04.980Z,8.56
2019-03-22T06:12:08.058Z,8.34
2019-03-22T06:17:11.900Z,8.52
2019-03-22T06:22:16.022Z,8.38
2019-03-22T06:27:19.441Z,8.53
2019-03-22T06:32:23.688Z,8.60
2019-03-22T06:37:27.781Z,8.54
2019-03-22T06:42:31.992Z,8.27
2019-03-22T06:47:35.140Z,8.32
2019-03-22T06:52:38.263Z,8.30
2019-03-22T06:57:42.142Z,8.24
2019-03-22T07:02:45.604Z,8.00
2019-03-22T07:07:49.090Z,8.13
2019-03-22T07:12:53.246Z,8.16
2019-03-22T07:17:56.927Z,8.06
2019-03-22T07:23:01.095Z,8.27
2019-03-22T07:28:04.934Z,8.20
2019-03-22T07:33:08.871Z,8.21
2019-03-22T07:38:12.676Z,8.06
2019-03-22T07:43:16.510Z,8.22
2019-03-22T07:48:19.942Z,8.38
2019-03-22T07:53:23.752Z,8.28
2019-03-22T07:58:27.222Z,8.26
2019-03-22T08:03:31.746Z,8.19
2019-03-22T08:08:35.633Z,8.17
2019-03-22T08:13:39.120Z,8.31
2019-03-22T08:18:43.326Z,8.31
2019-03-22T08:23:47.120Z,8.23
2019-03-22T08:28:51.345Z,8.19
2019-03-22T08:33:55.167Z,8.22
2019-03-22T08:38:59.402Z,8.34
2019-03-22T08:44:03.229Z,8.35
2019-03-22T08:49:09.467Z,8.43
2019-03-22T08:54:13.028Z,8.31
2019-03-22T08:59:16.846Z,8.20
2019-03-22T09:04:20.353Z,8.34
2019-03-22T09:09:24.184Z,8.28
2019-03-22T09:14:28.430Z,8.39
2019-03-22T09:19:32.635Z,8.28
2019-03-22T09:24:39.414Z,8.19
2019-03-22T09:29:41.444Z,8.36
2019-03-22T09:34:45.337Z,8.06
2019-03-22T09:39:49.282Z,8.14
2019-03-22T09:44:52.322Z,8.34
2019-03-22T09:49:56.466Z,8.44
2019-03-22T09:55:12.449Z,8.43
2019-03-22T10:00:06.948Z,8.42
2019-03-22T10:05:10.380Z,8.55
2019-03-22T10:10:14.189Z,8.48
2019-03-22T10:15:17.855Z,8.41
2019-03-22T10:20:22.226Z,8.58
2019-03-22T10:25:27.384Z,8.52
2019-03-22T10:30:31.076Z,8.55
2019-03-22T10:35:34.659Z,8.66
2019-03-22T10:40:38.212Z,8.52
2019-03-22T10:45:42.007Z,8.62
2019-03-22T10:50:45.179Z,8.64
2019-03-22T10:55:49.033Z,8.86
2019-03-22T11:00:53.253Z,8.84
2019-03-22T11:05:57.022Z,9.16
2019-03-22T11:11:00.620Z,8.98
2019-03-22T11:16:04.524Z,9.30
2019-03-22T11:21:08.046Z,9.24
2019-03-22T11:26:12.372Z,9.30
2019-03-22T11:31:15.993Z,9.38
2019-03-22T11:36:19.123Z,9.35
2019-03-22T11:41:22.939Z,9.42
2019-03-22T11:46:26.442Z,9.61
2019-03-22T11:51:30.783Z,9.64
2019-03-22T11:56:34.888Z,9.59
2019-03-22T12:01:38.314Z,9.48
2019-03-22T12:06:42.252Z,9.71
2019-03-22T12:11:45.794Z,9.65
2019-03-22T12:16:49.311Z,9.77
2019-03-22T12:21:53.214Z,9.91
2019-03-22T12:26:57.395Z,9.97
2019-03-22T12:32:02.871Z,10.10
2019-03-22T12:37:06.497Z,10.22
2019-03-22T12:42:11.997Z,10.07
2019-03-22T12:47:16.231Z,10.23
2019-03-22T12:52:19.648Z,10.17
2019-03-22T12:57:23.479Z,10.25
2019-03-22T13:02:27.575Z,10.31
2019-03-22T13:07:31.746Z,10.43
2019-03-22T13:12:34.879Z,10.37
2019-03-22T13:17:38.759Z,10.63
2019-03-22T13:22:42.242Z,10.70
2019-03-22T13:27:45.797Z,10.50
2019-03-22T13:32:52.212Z,10.78
2019-03-22T13:37:55.059Z,10.71
2019-03-22T13:42:58.905Z,10.88
2019-03-22T13:48:04.588Z,11.09
2019-03-22T13:53:07.996Z,11.00
2019-03-22T13:58:12.240Z,11.31
2019-03-22T14:03:15.568Z,11.26
2019-03-22T14:08:20.366Z,11.45
2019-03-22T14:13:23.517Z,11.46
2019-03-22T14:18:26.997Z,11.83
2019-03-22T14:23:30.827Z,11.76
2019-03-22T14:28:34.756Z,12.40
2019-03-22T14:33:38.273Z,13.06
2019-03-22T14:38:41.750Z,13.54
2019-03-22T14:43:45.885Z,14.18
2019-03-22T14:48:49.317Z,14.75
2019-03-22T14:53:53.214Z,15.15
2019-03-22T14:58:58.022Z,14.49
2019-03-22T15:04:02.070Z,14.94
2019-03-22T15:09:07.462Z,16.27
2019-03-22T15:14:21.350Z,17.48
2019-03-22T15:19:56.840Z,17.00
2019-03-22T15:25:19.100Z,17.92
2019-03-22T15:30:50.902Z,18.84
2019-03-22T15:36:29.324Z,18.15
2019-03-22T15:41:32.816Z,18.09
2019-03-22T15:46:36.248Z,17.82
2019-03-22T15:51:40.134Z,18.02
2019-03-22T15:56:44.812Z,17.88
2019-03-22T16:01:49.002Z,18.00
2019-03-22T16:06:52.870Z,18.30
2019-03-22T16:11:56.371Z,17.72
2019-03-22T16:17:00.206Z,17.01
2019-03-22T16:22:04.032Z,16.87
2019-03-22T16:27:07.551Z,17.29
2019-03-22T16:32:11.081Z,17.26
2019-03-22T16:37:16.343Z,17.28
2019-03-22T16:42:20.564Z,17.25
2019-03-22T16:47:24.697Z,17.14
2019-03-22T16:52:29.060Z,17.08
2019-03-22T16:57:32.820Z,17.01
2019-03-22T17:02:36.987Z,16.18
2019-03-22T17:07:40.357Z,14.97
2019-03-22T17:12:44.233Z,14.25
2019-03-22T17:17:48.339Z,13.96
2019-03-22T17:22:52.600Z,13.65
2019-03-22T17:27:56.427Z,13.42
2019-03-22T17:33:00.449Z,13.21
2019-03-22T17:38:04.581Z,13.00
2019-03-22T17:43:08.475Z,12.88
2019-03-22T17:48:12.332Z,12.66
2019-03-22T17:53:15.745Z,12.56
2019-03-22T17:58:19.275Z,12.40
2019-03-22T18:03:23.207Z,12.37
2019-03-22T18:08:27.127Z,12.18
2019-03-22T18:13:31.034Z,12.02
2019-03-22T18:18:34.979Z,11.92
2019-03-22T18:23:39.446Z,11.78
2019-03-22T18:28:43.675Z,11.63
2019-03-22T18:33:48.469Z,11.48
2019-03-22T18:38:52.433Z,11.49
2019-03-22T18:43:56.059Z,11.43
2019-03-22T18:49:00.080Z,11.33
2019-03-22T18:54:04.329Z,11.29
2019-03-22T18:59:08.600Z,11.14
2019-03-22T19:04:12.654Z,11.23
2019-03-22T19:09:16.577Z,11.19
2019-03-22T19:14:20.860Z,11.08
2019-03-22T19:19:25.464Z,11.10
2019-03-22T19:24:30.053Z,11.03
2019-03-22T19:29:34.160Z,10.95
2019-03-22T19:34:37.466Z,11.03
2019-03-22T19:39:42.663Z,10.87
2019-03-22T19:45:06.881Z,10.68
2019-03-22T19:50:14.280Z,10.77
2019-03-22T19:55:18.980Z,10.65
2019-03-22T20:00:23.652Z,10.43
2019-03-22T20:05:31.672Z,10.39
2019-03-22T20:10:35.506Z,10.43
2019-03-22T20:15:39.001Z,10.26
2019-03-22T20:20:43.368Z,10.18
2019-03-22T20:25:51.601Z,10.10
2019-03-22T20:30:55.782Z,9.95
2019-03-22T20:36:02.298Z,10.07
2019-03-22T20:41:08.401Z,9.84
2019-03-22T20:46:12.936Z,9.89
2019-03-22T20:51:25.298Z,9.95
2019-03-22T20:56:29.929Z,9.91
2019-03-22T21:01:38.187Z,9.98
2019-03-22T21:06:42.555Z,9.93
2019-03-22T21:11:47.438Z,9.84
2019-03-22T21:16:51.005Z,9.81
2019-03-22T21:21:55.329Z,9.72
2019-03-22T21:26:59.971Z,9.76
2019-03-22T21:32:04.681Z,9.74
2019-03-22T21:37:08.769Z,9.77
2019-03-22T21:42:13.453Z,9.67
2019-03-22T21:47:19.623Z,9.65
2019-03-22T21:52:23.801Z,9.50
2019-03-22T21:57:27.378Z,9.48
2019-03-22T22:02:30.173Z,9.50
2019-03-22T22:07:34.332Z,9.58
2019-03-22T22:12:38.281Z,9.76
2019-03-22T22:17:42.110Z,9.68
2019-03-22T22:22:45.761Z,9.86
2019-03-22T22:27:49.580Z,9.81
2019-03-22T22:32:53.121Z,9.81
2019-03-22T22:37:56.654Z,9.88
2019-03-22T22:43:00.487Z,9.78
2019-03-22T22:48:04.739Z,9.95
2019-03-22T22:53:10.204Z,9.89
2019-03-22T22:58:14.037Z,9.92
2019-03-22T23:03:18.078Z,9.93
2019-03-22T23:08:21.894Z,9.90
2019-03-22T23:13:25.703Z,9.87
2019-03-22T23:18:29.789Z,9.85
2019-03-22T23:23:33.656Z,9.87
2019-03-22T23:28:36.962Z,9.87
2019-03-22T23:33:40.391Z,9.79
2019-03-22T23:38:44.206Z,9.70
2019-03-22T23:43:47.762Z,9.72
2019-03-22T23:48:51.241Z,9.77
2019-03-22T23:53:55.060Z,9.73
2019-03-22T23:58:58.909Z,9.73
